^^
Station Historical Data
Daily Summary for February 14, 2018 Units:  Both    English   Metric
« Previous Day
Next Day »
Daily Weekly Monthly Yearly Custom
  High: Low: Average:
Temperature: TemperatureF °F /  -17.8 °C 30.0 °F /  -1.1 °C 39.7 °F /  4.3 °C
Dew Point: DewpointF °F /  -17.8 °C 25.0 °F /  -3.9 °C 33 °F /  0.6 °C
Humidity: Humidity% 62% 77%
Wind Speed: WindSpeedMPHmph /  0km/h - 1.4mph /  2.3km/h
Wind Gust: WindSpeedGustMPHmph /  0km/h - -
Wind- - SSW
Pressure: PressureIn in /  0 hPa 30.06 in /  1017.8 hPa -
Precipitation: 0.03 in /  0.76 mm    
Historical Graphs
 
 
Tabular Data for February 14, 2018
Time Temperature Dew Point Pressure Wind Wind Speed Wind Gust Humidity Rainfall Rate (Hourly) Conditions
TemperatureF °F /  -17.8 °C DewpointF °F /  -17.8 °C PressureInin /  0hPa Calm     Humidity% HourlyPrecipInin /  0mm Conditions
00:00 30.1 °F /  -1.1 °C 25.0 °F /  -3.9 °C 30.60in /  1036.1hPa Calm     81% 0.00in /  0mm BKN
00:10 30.2 °F /  -1 °C 25.1 °F /  -3.8 °C 30.60in /  1036.1hPa Calm   1.0mph /  1.6km/h 81% 0.00in /  0mm BKN
00:20 30.3 °F /  -0.9 °C 25.2 °F /  -3.8 °C 30.59in /  1035.8hPa Calm   2.0mph /  3.2km/h 81% 0.00in /  0mm BKN
00:30 30.4 °F /  -0.9 °C 25.0 °F /  -3.9 °C 30.58in /  1035.4hPa Calm   1.0mph /  1.6km/h 80% 0.00in /  0mm BKN
00:40 30.4 °F /  -0.9 °C 25.3 °F /  -3.7 °C 30.58in /  1035.4hPa Calm     81% 0.00in /  0mm BKN
00:50 30.4 °F /  -0.9 °C 25.3 °F /  -3.7 °C 30.57in /  1035.1hPa Calm     81% 0.00in /  0mm BKN
01:00 30.4 °F /  -0.9 °C 25.3 °F /  -3.7 °C 30.56in /  1034.8hPa Calm     81% 0.00in /  0mm BKN
01:10 30.4 °F /  -0.9 °C 25.3 °F /  -3.7 °C 30.56in /  1034.8hPa Calm   1.0mph /  1.6km/h 81% 0.00in /  0mm BKN
01:20 30.4 °F /  -0.9 °C 25.3 °F /  -3.7 °C 30.55in /  1034.4hPa Calm   1.0mph /  1.6km/h 81% 0.00in /  0mm BKN
01:30 30.1 °F /  -1.1 °C 25.3 °F /  -3.7 °C 30.55in /  1034.4hPa Calm   1.0mph /  1.6km/h 82% 0.00in /  0mm BKN
01:39 30.0 °F /  -1.1 °C 25.2 °F /  -3.8 °C 30.55in /  1034.4hPa Calm     82% 0.00in /  0mm BKN
01:50 30.1 °F /  -1.1 °C 25.3 °F /  -3.7 °C 30.54in /  1034.1hPa Calm   1.0mph /  1.6km/h 82% 0.00in /  0mm BKN
02:00 30.2 °F /  -1 °C 25.4 °F /  -3.7 °C 30.55in /  1034.4hPa Calm   1.0mph /  1.6km/h 82% 0.00in /  0mm BKN
02:10 30.3 °F /  -0.9 °C 25.5 °F /  -3.6 °C 30.53in /  1033.7hPa Calm   1.0mph /  1.6km/h 82% 0.00in /  0mm BKN
02:20 30.5 °F /  -0.8 °C 26.0 °F /  -3.3 °C 30.53in /  1033.7hPa Calm   2.0mph /  3.2km/h 83% 0.00in /  0mm BKN
02:30 30.7 °F /  -0.7 °C 26.1 °F /  -3.3 °C 30.52in /  1033.4hPa Calm   3.0mph /  4.8km/h 83% 0.00in /  0mm BKN
02:40 30.8 °F /  -0.7 °C 26.3 °F /  -3.2 °C 30.51in /  1033.1hPa South 1.0mph /  1.6km/h 4.0mph /  6.4km/h 83% 0.00in /  0mm BKN
02:50 31.0 °F /  -0.6 °C 26.4 °F /  -3.1 °C 30.51in /  1033.1hPa Calm   2.0mph /  3.2km/h 83% 0.00in /  0mm BKN
02:59 31.2 °F /  -0.4 °C 26.6 °F /  -3 °C 30.50in /  1032.7hPa South 1.0mph /  1.6km/h 3.0mph /  4.8km/h 83% 0.00in /  0mm BKN
03:10 31.3 °F /  -0.4 °C 27.0 °F /  -2.8 °C 30.49in /  1032.4hPa Calm   2.0mph /  3.2km/h 84% 0.00in /  0mm BKN
03:20 31.5 °F /  -0.3 °C 27.2 °F /  -2.7 °C 30.47in /  1031.7hPa Calm   3.0mph /  4.8km/h 84% 0.00in /  0mm BKN
03:30 31.3 °F /  -0.4 °C 26.8 °F /  -2.9 °C 30.46in /  1031.4hPa Calm   2.0mph /  3.2km/h 83% 0.00in /  0mm BKN
03:40 31.5 °F /  -0.3 °C 27.2 °F /  -2.7 °C 30.45in /  1031hPa South 1.0mph /  1.6km/h 4.0mph /  6.4km/h 84% 0.00in /  0mm BKN
03:50 31.8 °F /  -0.1 °C 27.8 °F /  -2.3 °C 30.45in /  1031hPa SSW 1.0mph /  1.6km/h 4.0mph /  6.4km/h 85% 0.00in /  0mm BKN
04:00 32.1 °F /  0.1 °C 28.4 °F /  -2 °C 30.46in /  1031.4hPa SW 1.0mph /  1.6km/h 7.0mph /  11.3km/h 86% 0.00in /  0mm BKN
04:20 32.1 °F /  0.1 °C 28.9 °F /  -1.7 °C 30.44in /  1030.7hPa SSW 1.0mph /  1.6km/h 5.0mph /  8km/h 88% 0.00in /  0mm OVC
04:30 32.4 °F /  0.2 °C 29.2 °F /  -1.6 °C 30.45in /  1031hPa SW 5.0mph /  8km/h 9.0mph /  14.5km/h 88% 0.00in /  0mm OVC
04:40 32.5 °F /  0.3 °C 29.3 °F /  -1.5 °C 30.45in /  1031hPa SSW 1.0mph /  1.6km/h 9.0mph /  14.5km/h 88% 0.00in /  0mm OVC
04:50 32.6 °F /  0.3 °C 29.4 °F /  -1.4 °C 30.45in /  1031hPa SSW 1.0mph /  1.6km/h 6.0mph /  9.7km/h 88% 0.00in /  0mm OVC
05:00 32.7 °F /  0.4 °C 29.5 °F /  -1.4 °C 30.44in /  1030.7hPa SW 1.0mph /  1.6km/h 7.0mph /  11.3km/h 88% 0.00in /  0mm OVC
05:10 32.5 °F /  0.3 °C 29.6 °F /  -1.3 °C 30.44in /  1030.7hPa SSW 1.0mph /  1.6km/h 3.0mph /  4.8km/h 89% 0.00in /  0mm BKN
05:20 32.4 °F /  0.2 °C 29.5 °F /  -1.4 °C 30.43in /  1030.4hPa Calm   2.0mph /  3.2km/h 89% 0.00in /  0mm BKN
05:30 32.3 °F /  0.2 °C 29.7 °F /  -1.3 °C 30.43in /  1030.4hPa Calm   3.0mph /  4.8km/h 90% 0.00in /  0mm BKN
05:40 32.3 °F /  0.2 °C 29.7 °F /  -1.3 °C 30.43in /  1030.4hPa Calm   4.0mph /  6.4km/h 90% 0.00in /  0mm BKN
05:50 32.3 °F /  0.2 °C 29.7 °F /  -1.3 °C 30.42in /  1030hPa SSW 2.0mph /  3.2km/h 6.0mph /  9.7km/h 90% 0.00in /  0mm BKN
06:00 32.4 °F /  0.2 °C 29.8 °F /  -1.2 °C 30.42in /  1030hPa SSW 2.0mph /  3.2km/h 6.0mph /  9.7km/h 90% 0.00in /  0mm BKN
06:10 32.5 °F /  0.3 °C 29.6 °F /  -1.3 °C 30.42in /  1030hPa SSW 3.0mph /  4.8km/h 5.0mph /  8km/h 89% 0.00in /  0mm BKN
06:20 32.6 °F /  0.3 °C 29.7 °F /  -1.3 °C 30.42in /  1030hPa SSW 1.0mph /  1.6km/h 4.0mph /  6.4km/h 89% 0.00in /  0mm BKN
06:30 32.6 °F /  0.3 °C 29.7 °F /  -1.3 °C 30.41in /  1029.7hPa South 1.0mph /  1.6km/h 5.0mph /  8km/h 89% 0.00in /  0mm BKN
06:40 32.7 °F /  0.4 °C 29.8 °F /  -1.2 °C 30.41in /  1029.7hPa SSW 1.0mph /  1.6km/h 5.0mph /  8km/h 89% 0.00in /  0mm BKN
06:50 32.8 °F /  0.4 °C 29.9 °F /  -1.2 °C 30.41in /  1029.7hPa SW 1.0mph /  1.6km/h 5.0mph /  8km/h 89% 0.00in /  0mm BKN
07:00 32.9 °F /  0.5 °C 30.0 °F /  -1.1 °C 30.41in /  1029.7hPa SSW 3.0mph /  4.8km/h 6.0mph /  9.7km/h 89% 0.00in /  0mm BKN
07:10 32.9 °F /  0.5 °C 30.0 °F /  -1.1 °C 30.41in /  1029.7hPa SSW 2.0mph /  3.2km/h 5.0mph /  8km/h 89% 0.00in /  0mm BKN
07:20 33.0 °F /  0.6 °C 30.1 °F /  -1.1 °C 30.41in /  1029.7hPa SSW 2.0mph /  3.2km/h 5.0mph /  8km/h 89% 0.00in /  0mm BKN
07:30 33.1 °F /  0.6 °C 30.2 °F /  -1 °C 30.40in /  1029.3hPa SSW 1.0mph /  1.6km/h 5.0mph /  8km/h 89% 0.00in /  0mm BKN
07:40 33.2 °F /  0.7 °C 30.0 °F /  -1.1 °C 30.41in /  1029.7hPa SSW 2.0mph /  3.2km/h 8.0mph /  12.9km/h 88% 0.00in /  0mm BKN
07:50 33.4 °F /  0.8 °C 29.9 °F /  -1.2 °C 30.41in /  1029.7hPa SSW 2.0mph /  3.2km/h 7.0mph /  11.3km/h 87% 0.00in /  0mm BKN
07:59 33.5 °F /  0.8 °C 30.0 °F /  -1.1 °C 30.41in /  1029.7hPa SSW 1.0mph /  1.6km/h 5.0mph /  8km/h 87% 0.00in /  0mm BKN
08:10 33.6 °F /  0.9 °C 30.1 °F /  -1.1 °C 30.40in /  1029.3hPa SW 3.0mph /  4.8km/h 6.0mph /  9.7km/h 87% 0.00in /  0mm BKN
08:20 33.6 °F /  0.9 °C 29.9 °F /  -1.2 °C 30.39in /  1029hPa SSW 6.0mph /  9.7km/h 9.0mph /  14.5km/h 86% 0.00in /  0mm BKN
08:30 33.7 °F /  0.9 °C 30.0 °F /  -1.1 °C 30.40in /  1029.3hPa SW 1.0mph /  1.6km/h 7.0mph /  11.3km/h 86% 0.00in /  0mm BKN
08:40 33.7 °F /  0.9 °C 29.7 °F /  -1.3 °C 30.39in /  1029hPa SSW 1.0mph /  1.6km/h 6.0mph /  9.7km/h 85% 0.00in /  0mm BKN
08:50 33.8 °F /  1 °C 29.8 °F /  -1.2 °C 30.39in /  1029hPa SSW 2.0mph /  3.2km/h 8.0mph /  12.9km/h 85% 0.00in /  0mm BKN
09:00 34.0 °F /  1.1 °C 29.7 °F /  -1.3 °C 30.38in /  1028.7hPa SW 2.0mph /  3.2km/h 7.0mph /  11.3km/h 84% 0.00in /  0mm BKN
09:09 34.3 °F /  1.3 °C 29.9 °F /  -1.2 °C 30.38in /  1028.7hPa SSW 3.0mph /  4.8km/h 9.0mph /  14.5km/h 84% 0.00in /  0mm BKN
09:20 34.4 °F /  1.3 °C 30.1 °F /  -1.1 °C 30.38in /  1028.7hPa SSW 5.0mph /  8km/h 9.0mph /  14.5km/h 84% 0.00in /  0mm BKN
09:29 34.7 °F /  1.5 °C 30.3 °F /  -0.9 °C 30.37in /  1028.3hPa SSW 5.0mph /  8km/h 12.0mph /  19.3km/h 84% 0.00in /  0mm BKN
09:40 34.9 °F /  1.6 °C 30.3 °F /  -0.9 °C 30.36in /  1028hPa SW 3.0mph /  4.8km/h 9.0mph /  14.5km/h 83% 0.01in /  0.25mm RA
09:50 35.3 °F /  1.8 °C 30.4 °F /  -0.9 °C 30.37in /  1028.3hPa SW 3.0mph /  4.8km/h 9.0mph /  14.5km/h 82% 0.00in /  0mm BKN
10:00 35.8 °F /  2.1 °C 30.5 °F /  -0.8 °C 30.36in /  1028hPa South 2.0mph /  3.2km/h 9.0mph /  14.5km/h 81% 0.00in /  0mm BKN
10:10 36.1 °F /  2.3 °C 30.5 °F /  -0.8 °C 30.35in /  1027.7hPa SSW 6.0mph /  9.7km/h 12.0mph /  19.3km/h 80% 0.00in /  0mm BKN
10:30 37.0 °F /  2.8 °C 30.7 °F /  -0.7 °C 30.35in /  1027.7hPa SW 1.0mph /  1.6km/h 12.0mph /  19.3km/h 78% 0.00in /  0mm BKN
10:40 37.3 °F /  2.9 °C 31.0 °F /  -0.6 °C 30.35in /  1027.7hPa SSW 5.0mph /  8km/h 12.0mph /  19.3km/h 78% 0.00in /  0mm BKN
10:50 38.0 °F /  3.3 °C 31.1 °F /  -0.5 °C 30.34in /  1027.3hPa SSW 2.0mph /  3.2km/h 10.0mph /  16.1km/h 76% 0.00in /  0mm BKN
10:59 38.1 °F /  3.4 °C 31.2 °F /  -0.4 °C 30.34in /  1027.3hPa SSW 3.0mph /  4.8km/h 9.0mph /  14.5km/h 76% 0.00in /  0mm BKN
11:10 38.9 °F /  3.8 °C 31.7 °F /  -0.2 °C 30.33in /  1027hPa WSW 3.0mph /  4.8km/h 12.0mph /  19.3km/h 75% 0.00in /  0mm BKN
11:20 39.8 °F /  4.3 °C 31.8 °F /  -0.1 °C 30.33in /  1027hPa SSW 6.0mph /  9.7km/h 10.0mph /  16.1km/h 73% 0.00in /  0mm BKN
11:30 40.5 °F /  4.7 °C 32.6 °F /  0.3 °C 30.32in /  1026.6hPa SSW 2.0mph /  3.2km/h 7.0mph /  11.3km/h 73% 0.00in /  0mm BKN
11:40 41.1 °F /  5.1 °C 32.7 °F /  0.4 °C 30.32in /  1026.6hPa SSW 3.0mph /  4.8km/h 10.0mph /  16.1km/h 72% 0.00in /  0mm BKN
11:50 40.6 °F /  4.8 °C 31.9 °F /  -0.1 °C 30.31in /  1026.3hPa WSW 3.0mph /  4.8km/h 8.0mph /  12.9km/h 71% 0.00in /  0mm BKN
12:00 40.8 °F /  4.9 °C 32.1 °F /  0.1 °C 30.31in /  1026.3hPa SW 2.0mph /  3.2km/h 8.0mph /  12.9km/h 71% 0.00in /  0mm BKN
12:10 41.5 °F /  5.3 °C 32.8 °F /  0.4 °C 30.30in /  1026hPa West 1.0mph /  1.6km/h 8.0mph /  12.9km/h 71% 0.00in /  0mm BKN
12:20 41.7 °F /  5.4 °C 33.0 °F /  0.6 °C 30.29in /  1025.6hPa SW 3.0mph /  4.8km/h 7.0mph /  11.3km/h 71% 0.00in /  0mm BKN
12:30 42.5 °F /  5.8 °C 33.8 °F /  1 °C 30.28in /  1025.3hPa SSW 2.0mph /  3.2km/h 9.0mph /  14.5km/h 71% 0.00in /  0mm BKN
12:40 43.1 °F /  6.2 °C 33.6 °F /  0.9 °C 30.28in /  1025.3hPa WSW 3.0mph /  4.8km/h 7.0mph /  11.3km/h 69% 0.00in /  0mm BKN
12:50 43.7 °F /  6.5 °C 34.2 °F /  1.2 °C 30.27in /  1024.9hPa WSW 1.0mph /  1.6km/h 5.0mph /  8km/h 69% 0.00in /  0mm BKN
13:00 43.9 °F /  6.6 °C 34.1 °F /  1.2 °C 30.26in /  1024.6hPa SW 2.0mph /  3.2km/h 10.0mph /  16.1km/h 68% 0.00in /  0mm BKN
13:10 43.3 °F /  6.3 °C 33.4 °F /  0.8 °C 30.26in /  1024.6hPa WSW 3.0mph /  4.8km/h 6.0mph /  9.7km/h 68% 0.00in /  0mm SCT
13:20 43.4 °F /  6.3 °C 34.3 °F /  1.3 °C 30.25in /  1024.3hPa Calm   5.0mph /  8km/h 70% 0.00in /  0mm SCT
13:30 43.5 °F /  6.4 °C 34.4 °F /  1.3 °C 30.25in /  1024.3hPa WSW 2.0mph /  3.2km/h 6.0mph /  9.7km/h 70% 0.00in /  0mm SCT
13:40 43.5 °F /  6.4 °C 34.4 °F /  1.3 °C 30.24in /  1023.9hPa WSW 1.0mph /  1.6km/h 5.0mph /  8km/h 70% 0.00in /  0mm SCT
13:50 43.9 °F /  6.6 °C 34.7 °F /  1.5 °C 30.24in /  1023.9hPa Calm   7.0mph /  11.3km/h 70% 0.00in /  0mm SCT
13:59 44.2 °F /  6.8 °C 34.6 °F /  1.4 °C 30.23in /  1023.6hPa Calm   7.0mph /  11.3km/h 69% 0.00in /  0mm SCT
14:10 44.7 °F /  7.1 °C 34.8 °F /  1.6 °C 30.22in /  1023.2hPa SW 2.0mph /  3.2km/h 4.0mph /  6.4km/h 68% 0.00in /  0mm BKN
14:19 45.0 °F /  7.2 °C 35.1 °F /  1.7 °C 30.22in /  1023.2hPa SW 1.0mph /  1.6km/h 7.0mph /  11.3km/h 68% 0.00in /  0mm BKN
14:30 45.6 °F /  7.6 °C 35.3 °F /  1.8 °C 30.22in /  1023.2hPa SSW 2.0mph /  3.2km/h 6.0mph /  9.7km/h 67% 0.00in /  0mm BKN
14:39 46.0 °F /  7.8 °C 35.3 °F /  1.8 °C 30.22in /  1023.2hPa SSW 1.0mph /  1.6km/h 4.0mph /  6.4km/h 66% 0.00in /  0mm BKN
14:49 46.1 °F /  7.8 °C 35.4 °F /  1.9 °C 30.21in /  1022.9hPa SSW 2.0mph /  3.2km/h 6.0mph /  9.7km/h 66% 0.00in /  0mm BKN
15:00 46.7 °F /  8.2 °C 35.9 °F /  2.2 °C 30.20in /  1022.6hPa Calm   4.0mph /  6.4km/h 66% 0.00in /  0mm BKN
15:09 47.2 °F /  8.4 °C 36.4 °F /  2.4 °C 30.20in /  1022.6hPa Calm   4.0mph /  6.4km/h 66% 0.00in /  0mm BKN
15:20 47.7 °F /  8.7 °C 36.5 °F /  2.5 °C 30.19in /  1022.2hPa SW 1.0mph /  1.6km/h 6.0mph /  9.7km/h 65% 0.00in /  0mm BKN
15:30 48.1 °F /  8.9 °C 36.9 °F /  2.7 °C 30.18in /  1021.9hPa SW 2.0mph /  3.2km/h 6.0mph /  9.7km/h 65% 0.00in /  0mm BKN
15:39 48.5 °F /  9.2 °C 36.9 °F /  2.7 °C 30.18in /  1021.9hPa SW 3.0mph /  4.8km/h 7.0mph /  11.3km/h 64% 0.00in /  0mm BKN
15:50 48.8 °F /  9.3 °C 37.2 °F /  2.9 °C 30.17in /  1021.6hPa SSW 5.0mph /  8km/h 10.0mph /  16.1km/h 64% 0.00in /  0mm BKN
16:00 49.4 °F /  9.7 °C 37.7 °F /  3.2 °C 30.17in /  1021.6hPa SW 5.0mph /  8km/h 7.0mph /  11.3km/h 64% 0.00in /  0mm BKN
16:10 50.3 °F /  10.2 °C 38.2 °F /  3.4 °C 30.17in /  1021.6hPa SSW 2.0mph /  3.2km/h 7.0mph /  11.3km/h 63% 0.00in /  0mm FEW
16:20 50.4 °F /  10.2 °C 37.9 °F /  3.3 °C 30.16in /  1021.2hPa SW 3.0mph /  4.8km/h 8.0mph /  12.9km/h 62% 0.00in /  0mm FEW
16:30 50.5 °F /  10.3 °C 38.0 °F /  3.3 °C 30.16in /  1021.2hPa WSW 2.0mph /  3.2km/h 9.0mph /  14.5km/h 62% 0.00in /  0mm FEW
16:40 50.7 °F /  10.4 °C 38.1 °F /  3.4 °C 30.16in /  1021.2hPa SW 1.0mph /  1.6km/h 7.0mph /  11.3km/h 62% 0.00in /  0mm FEW
16:50 50.2 °F /  10.1 °C 38.1 °F /  3.4 °C 30.16in /  1021.2hPa Calm   5.0mph /  8km/h 63% 0.00in /  0mm FEW
17:00 49.8 °F /  9.9 °C 38.1 °F /  3.4 °C 30.15in /  1020.9hPa Calm   6.0mph /  9.7km/h 64% 0.00in /  0mm FEW
17:10 49.6 °F /  9.8 °C 38.3 °F /  3.5 °C 30.15in /  1020.9hPa South 1.0mph /  1.6km/h 4.0mph /  6.4km/h 65% 0.00in /  0mm SCT
17:20 49.5 °F /  9.7 °C 38.3 °F /  3.5 °C 30.15in /  1020.9hPa South 1.0mph /  1.6km/h 4.0mph /  6.4km/h 65% 0.00in /  0mm SCT
17:29 49.4 °F /  9.7 °C 38.9 °F /  3.8 °C 30.15in /  1020.9hPa SW 1.0mph /  1.6km/h 7.0mph /  11.3km/h 67% 0.00in /  0mm SCT
17:39 49.2 °F /  9.6 °C 38.7 °F /  3.7 °C 30.15in /  1020.9hPa Calm   8.0mph /  12.9km/h 67% 0.00in /  0mm SCT
17:49 49.2 °F /  9.6 °C 39.1 °F /  3.9 °C 30.15in /  1020.9hPa SW 2.0mph /  3.2km/h 8.0mph /  12.9km/h 68% 0.00in /  0mm SCT
18:00 49.2 °F /  9.6 °C 39.1 °F /  3.9 °C 30.15in /  1020.9hPa SW 1.0mph /  1.6km/h 7.0mph /  11.3km/h 68% 0.00in /  0mm SCT
18:10 49.2 °F /  9.6 °C 39.1 °F /  3.9 °C 30.15in /  1020.9hPa SSW 3.0mph /  4.8km/h 7.0mph /  11.3km/h 68% 0.00in /  0mm BKN
18:20 49.2 °F /  9.6 °C 39.1 °F /  3.9 °C 30.15in /  1020.9hPa SW 2.0mph /  3.2km/h 7.0mph /  11.3km/h 68% 0.00in /  0mm BKN
18:30 49.2 °F /  9.6 °C 39.5 °F /  4.2 °C 30.15in /  1020.9hPa SSW 1.0mph /  1.6km/h 4.0mph /  6.4km/h 69% 0.00in /  0mm BKN
18:40 49.0 °F /  9.4 °C 39.3 °F /  4.1 °C 30.15in /  1020.9hPa SW 1.0mph /  1.6km/h 6.0mph /  9.7km/h 69% 0.00in /  0mm BKN
18:49 48.7 °F /  9.3 °C 39.4 °F /  4.1 °C 30.14in /  1020.5hPa Calm   4.0mph /  6.4km/h 70% 0.00in /  0mm BKN
19:00 48.5 °F /  9.2 °C 39.5 °F /  4.2 °C 30.14in /  1020.5hPa WSW 1.0mph /  1.6km/h 4.0mph /  6.4km/h 71% 0.00in /  0mm BKN
19:10 48.3 °F /  9.1 °C 39.4 °F /  4.1 °C 30.14in /  1020.5hPa SW 1.0mph /  1.6km/h 4.0mph /  6.4km/h 71% 0.00in /  0mm BKN
19:19 48.2 °F /  9 °C 39.6 °F /  4.2 °C 30.13in /  1020.2hPa SW 1.0mph /  1.6km/h 3.0mph /  4.8km/h 72% 0.00in /  0mm BKN
19:30 48.0 °F /  8.9 °C 39.0 °F /  3.9 °C 30.13in /  1020.2hPa WSW 2.0mph /  3.2km/h 5.0mph /  8km/h 71% 0.00in /  0mm BKN
19:40 47.7 °F /  8.7 °C 39.1 °F /  3.9 °C 30.13in /  1020.2hPa Calm   5.0mph /  8km/h 72% 0.00in /  0mm BKN
19:50 47.4 °F /  8.6 °C 39.2 °F /  4 °C 30.13in /  1020.2hPa SW 2.0mph /  3.2km/h 5.0mph /  8km/h 73% 0.00in /  0mm BKN
19:59 47.2 °F /  8.4 °C 39.0 °F /  3.9 °C 30.13in /  1020.2hPa Calm   4.0mph /  6.4km/h 73% 0.00in /  0mm BKN
20:10 46.7 °F /  8.2 °C 38.5 °F /  3.6 °C 30.13in /  1020.2hPa Calm   2.0mph /  3.2km/h 73% 0.00in /  0mm SCT
20:20 46.2 °F /  7.9 °C 38.4 °F /  3.6 °C 30.13in /  1020.2hPa Calm     74% 0.00in /  0mm SCT
20:30 45.8 °F /  7.7 °C 38.3 °F /  3.5 °C 30.13in /  1020.2hPa Calm   3.0mph /  4.8km/h 75% 0.00in /  0mm SCT
20:40 45.6 °F /  7.6 °C 38.5 °F /  3.6 °C 30.13in /  1020.2hPa Calm   1.0mph /  1.6km/h 76% 0.00in /  0mm SCT
20:50 45.7 °F /  7.6 °C 38.6 °F /  3.7 °C 30.12in /  1019.9hPa Calm   1.0mph /  1.6km/h 76% 0.00in /  0mm SCT
20:59 45.6 °F /  7.6 °C 38.5 °F /  3.6 °C 30.12in /  1019.9hPa SSW 1.0mph /  1.6km/h 2.0mph /  3.2km/h 76% 0.00in /  0mm SCT
21:10 45.7 °F /  7.6 °C 38.6 °F /  3.7 °C 30.12in /  1019.9hPa Calm   2.0mph /  3.2km/h 76% 0.00in /  0mm SCT
21:20 46.1 °F /  7.8 °C 39.0 °F /  3.9 °C 30.11in /  1019.5hPa Calm   2.0mph /  3.2km/h 76% 0.00in /  0mm SCT
21:30 46.4 °F /  8 °C 38.9 °F /  3.8 °C 30.11in /  1019.5hPa Calm   1.0mph /  1.6km/h 75% 0.00in /  0mm SCT
21:39 45.9 °F /  7.7 °C 38.8 °F /  3.8 °C 30.11in /  1019.5hPa Calm   1.0mph /  1.6km/h 76% 0.00in /  0mm SCT
21:50 46.1 °F /  7.8 °C 38.6 °F /  3.7 °C 30.10in /  1019.2hPa SSW 1.0mph /  1.6km/h 3.0mph /  4.8km/h 75% 0.00in /  0mm SCT
22:00 46.4 °F /  8 °C 38.6 °F /  3.7 °C 30.10in /  1019.2hPa SSW 1.0mph /  1.6km/h 3.0mph /  4.8km/h 74% 0.00in /  0mm SCT
22:09 46.4 °F /  8 °C 38.6 °F /  3.7 °C 30.09in /  1018.8hPa SSW 1.0mph /  1.6km/h 4.0mph /  6.4km/h 74% 0.00in /  0mm BKN
22:20 46.7 °F /  8.2 °C 38.8 °F /  3.8 °C 30.09in /  1018.8hPa Calm   3.0mph /  4.8km/h 74% 0.00in /  0mm BKN
22:30 46.6 °F /  8.1 °C 38.8 °F /  3.8 °C 30.08in /  1018.5hPa South 1.0mph /  1.6km/h 4.0mph /  6.4km/h 74% 0.00in /  0mm BKN
22:40 46.7 °F /  8.2 °C 38.9 °F /  3.8 °C 30.08in /  1018.5hPa South 2.0mph /  3.2km/h 5.0mph /  8km/h 74% 0.00in /  0mm BKN
22:50 46.5 °F /  8.1 °C 39.7 °F /  4.3 °C 30.08in /  1018.5hPa SSW 1.0mph /  1.6km/h 4.0mph /  6.4km/h 77% 0.00in /  0mm BKN
22:59 45.9 °F /  7.7 °C 39.8 °F /  4.3 °C 30.08in /  1018.5hPa Calm   3.0mph /  4.8km/h 79% 0.00in /  0mm BKN
23:09 45.4 °F /  7.4 °C 40.2 °F /  4.6 °C 30.07in /  1018.2hPa Calm   2.0mph /  3.2km/h 82% 0.01in /  0.25mm -RA
23:20 44.9 °F /  7.2 °C 40.4 °F /  4.7 °C 30.07in /  1018.2hPa Calm   2.0mph /  3.2km/h 84% 0.00in /  0mm -RA
23:30 44.5 °F /  6.9 °C 40.3 °F /  4.6 °C 30.06in /  1017.8hPa Calm   3.0mph /  4.8km/h 85% 0.00in /  0mm -RA
23:39 44.3 °F /  6.8 °C 40.7 °F /  4.8 °C 30.06in /  1017.8hPa South 2.0mph /  3.2km/h 2.0mph /  3.2km/h 87% 0.00in /  0mm RA
23:49 43.9 °F /  6.6 °C 40.9 °F /  4.9 °C 30.06in /  1017.8hPa SSW 3.0mph /  4.8km/h 5.0mph /  8km/h 89% 0.01in /  0.25mm RA
23:59 43.9 °F /  6.6 °C 40.9 °F /  4.9 °C 30.06in /  1017.8hPa SW 5.0mph /  8km/h 7.0mph /  11.3km/h 89% 0.00in /  0mm
TarryTown NY Weather
Compliments of Weather Underground - 1.75 mb